首页
METAR-TAF:

METAR-TAF

机场 :

Orangeburg Municipal Airport

Orangeburg, 南卡罗来纳州, 美国

纬度: 33-27-50N, 经度: 080-51-13W, 海拔: 60米

当前天气观测

该预报发布于8分钟前的10:53 UTC
风速6节,风向东转东北
温度 20°C
湿度 83%
气压 1019 hPa
能見度: 16.1公里
多云层高于11000英尺
小雨

METAR: KOGB 261053Z AUTO 06006KT 10SM -RA BKN110 20/17 A3008 RMK AO2 RAB47 SLP183 P0000 T02000172

时间: 07:01 (11:01 UTC)

预报

该预报发布于25分钟前的10:36 UTC
预报有效从26日的 11点(UTC)到 27日的 06点(UTC)
风速4节,风向
能見度: 10公里
散云层高于2000英尺
阴天层高于10000英尺
从 26日的 2000点(UTC)
风速8节,风向
能見度: 9.7公里
多云层高于3500英尺
阴天层高于8000英尺
小阵雨
短暂存在
从 26日的 22点(UTC)到 26日的 24点(UTC)
能見度: 4.8公里
阴天层高于3000英尺
阵雨
从 27日的 0500点(UTC)
风速7节,风向东转东北
能見度: 8.0公里
阴天层高于1200英尺
小阵雨

TAF: KOGB 261036Z 2611/2706 09004KT P6SM SCT020 OVC100 FM262000 08008KT 6SM -SHRA BKN035 OVC080 TEMPO 2622/2624 3SM SHRA OVC030 FM270500 06007KT 5SM -SHRA OVC012

超过4000个机场的气象观测和天气预报(METAR&TAF报告)。

可查询的气象台以黄色和红色小点在地图上表示。

将鼠标移到小点上方,可查看气象台名称。

然后点击查看天气观测和预报。

如需切换地图:点击带黑十字的绿色按钮放大地图;点击带横线的绿色按钮缩小地图;或者点击绿色箭头查看邻近地区的地图。


METAR-TAF: